createdAt,value
2022-09-03T00:01:25.159Z,32.90
2022-09-03T00:03:59.037Z,33.10
2022-09-03T00:06:32.198Z,32.90
2022-09-03T00:09:07.534Z,33.90
2022-09-03T00:11:43.263Z,33.00
2022-09-03T00:14:16.838Z,32.50
2022-09-03T00:16:50.844Z,32.00
2022-09-03T00:19:23.132Z,32.20
2022-09-03T00:21:57.218Z,32.40
2022-09-03T00:24:31.092Z,32.30
2022-09-03T00:27:04.397Z,32.50
2022-09-03T00:29:39.685Z,32.40
2022-09-03T00:32:15.382Z,32.20
2022-09-03T00:34:48.120Z,32.30
2022-09-03T00:37:38.105Z,31.90
2022-09-03T00:40:37.687Z,32.20
2022-09-03T00:43:46.398Z,31.90
2022-09-03T00:46:21.801Z,32.20
2022-09-03T00:49:12.648Z,32.20
2022-09-03T00:55:03.379Z,32.20
2022-09-03T00:58:05.473Z,32.30
2022-09-03T01:00:35.242Z,32.60
2022-09-03T01:03:08.732Z,32.70
2022-09-03T01:06:02.067Z,32.60
2022-09-03T01:08:54.634Z,32.10
2022-09-03T01:11:31.717Z,32.40
2022-09-03T01:14:14.610Z,32.40
2022-09-03T01:16:50.319Z,32.60
2022-09-03T01:19:52.230Z,32.30
2022-09-03T01:22:45.778Z,32.10
2022-09-03T01:25:18.308Z,32.20
2022-09-03T01:28:00.048Z,32.10
2022-09-03T01:30:29.376Z,32.20
2022-09-03T01:33:06.389Z,32.10
2022-09-03T01:35:42.084Z,32.20
2022-09-03T01:38:21.866Z,32.10
2022-09-03T01:41:23.543Z,32.10
2022-09-03T01:44:04.636Z,32.30
2022-09-03T01:46:40.452Z,32.50
2022-09-03T01:49:22.859Z,32.50
2022-09-03T01:51:59.940Z,32.30
2022-09-03T01:54:44.814Z,33.80
2022-09-03T01:57:40.306Z,32.40
2022-09-03T02:03:08.008Z,32.40
2022-09-03T02:05:36.828Z,32.50
2022-09-03T02:08:07.270Z,32.40
2022-09-03T02:10:41.413Z,32.50
2022-09-03T02:13:14.539Z,32.30
2022-09-03T02:15:47.035Z,32.30
2022-09-03T02:18:20.012Z,32.20
2022-09-03T02:20:49.961Z,32.40
2022-09-03T02:23:18.534Z,32.40
2022-09-03T02:25:56.949Z,32.40
2022-09-03T02:28:25.761Z,32.50
2022-09-03T02:30:57.027Z,32.40
2022-09-03T02:33:26.027Z,32.40
2022-09-03T02:35:55.349Z,32.30
2022-09-03T02:38:26.528Z,32.40
2022-09-03T02:40:55.450Z,32.60
2022-09-03T02:43:28.835Z,33.60
2022-09-03T02:46:03.244Z,32.40
2022-09-03T02:48:35.673Z,32.20
2022-09-03T02:51:13.927Z,32.30
2022-09-03T02:53:43.247Z,32.40
2022-09-03T02:56:11.987Z,32.30
2022-09-03T02:58:40.943Z,32.10
2022-09-03T03:01:11.766Z,32.10
2022-09-03T03:03:46.563Z,32.20
2022-09-03T03:06:15.327Z,32.40
2022-09-03T03:08:44.283Z,32.40
2022-09-03T03:11:12.591Z,32.50
2022-09-03T03:13:40.888Z,32.50
2022-09-03T03:16:15.519Z,32.40
2022-09-03T03:18:46.236Z,32.50
2022-09-03T03:21:16.192Z,32.40
2022-09-03T03:23:44.859Z,32.30
2022-09-03T03:26:15.029Z,32.40
2022-09-03T03:28:43.295Z,32.60
2022-09-03T03:31:15.309Z,32.50
2022-09-03T03:33:44.259Z,32.50
2022-09-03T03:36:14.435Z,32.50
2022-09-03T03:38:43.393Z,32.60
2022-09-03T03:41:12.842Z,32.50
2022-09-03T03:43:41.167Z,32.70
2022-09-03T03:46:10.391Z,32.60
2022-09-03T03:48:40.402Z,32.70
2022-09-03T03:51:10.679Z,32.70
2022-09-03T03:53:40.023Z,32.60
2022-09-03T03:56:10.802Z,32.80
2022-09-03T03:58:42.441Z,32.70
2022-09-03T04:01:12.858Z,32.70
2022-09-03T04:03:43.667Z,32.80
2022-09-03T04:06:13.739Z,32.70
2022-09-03T04:08:43.853Z,32.90
2022-09-03T04:11:16.595Z,32.90
2022-09-03T04:13:46.712Z,32.90
2022-09-03T04:16:16.776Z,32.60
2022-09-03T04:18:46.684Z,32.70
2022-09-03T04:21:17.354Z,32.70
2022-09-03T04:23:47.513Z,32.60
2022-09-03T04:26:18.113Z,32.80
2022-09-03T04:28:47.001Z,32.80
2022-09-03T04:31:18.314Z,32.70
2022-09-03T04:33:51.261Z,32.80
2022-09-03T04:36:21.486Z,32.70
2022-09-03T04:38:51.585Z,32.70
2022-09-03T04:41:21.434Z,32.50
2022-09-03T04:43:51.397Z,32.60
2022-09-03T04:46:21.886Z,32.70
2022-09-03T04:48:52.956Z,32.80
2022-09-03T04:51:23.351Z,32.70
2022-09-03T04:53:56.942Z,32.80
2022-09-03T04:56:26.881Z,32.90
2022-09-03T04:58:57.861Z,32.70
2022-09-03T05:01:27.915Z,32.80
2022-09-03T05:03:59.045Z,32.90
2022-09-03T05:06:27.965Z,32.90
2022-09-03T05:08:57.474Z,32.90
2022-09-03T05:11:27.041Z,32.90
2022-09-03T05:13:57.217Z,32.90
2022-09-03T05:16:28.396Z,32.80
2022-09-03T05:19:01.307Z,32.90
2022-09-03T05:21:31.509Z,33.10
2022-09-03T05:24:01.553Z,33.20
2022-09-03T05:26:31.500Z,33.10
2022-09-03T05:29:02.475Z,33.00
2022-09-03T05:31:34.195Z,33.00
2022-09-03T05:34:05.429Z,33.10
2022-09-03T05:36:35.805Z,33.10
2022-09-03T05:39:04.852Z,33.00
2022-09-03T05:41:34.056Z,33.00
2022-09-03T05:44:03.970Z,32.90
2022-09-03T05:46:33.987Z,32.90
2022-09-03T05:49:05.865Z,33.00
2022-09-03T05:51:35.090Z,32.90
2022-09-03T05:54:03.987Z,32.90
2022-09-03T05:56:35.716Z,32.90
2022-09-03T05:59:09.315Z,32.90
2022-09-03T06:01:39.483Z,32.90
2022-09-03T06:04:11.819Z,32.90
2022-09-03T06:06:41.791Z,32.90
2022-09-03T06:09:11.718Z,33.10
2022-09-03T06:11:42.782Z,33.20
2022-09-03T06:14:13.092Z,33.20
2022-09-03T06:16:43.255Z,33.20
2022-09-03T06:19:14.276Z,33.40
2022-09-03T06:21:44.388Z,33.30
2022-09-03T06:24:14.165Z,33.40
2022-09-03T06:26:43.624Z,33.40
2022-09-03T06:29:12.472Z,33.50
2022-09-03T06:31:40.972Z,33.60
2022-09-03T06:34:09.501Z,33.50
2022-09-03T06:36:39.143Z,33.50
2022-09-03T06:39:07.502Z,33.60
2022-09-03T06:41:35.872Z,33.70
2022-09-03T06:44:06.447Z,33.40
2022-09-03T06:46:36.163Z,33.60
2022-09-03T06:49:04.896Z,33.60
2022-09-03T06:51:34.364Z,33.70
2022-09-03T06:54:06.256Z,33.70
2022-09-03T06:56:39.852Z,33.80
2022-09-03T06:59:10.248Z,33.80
2022-09-03T07:01:41.020Z,33.80
2022-09-03T07:04:16.219Z,33.80
2022-09-03T07:06:46.653Z,33.70
2022-09-03T07:09:18.329Z,33.70
2022-09-03T07:11:48.849Z,33.70
2022-09-03T07:14:21.332Z,33.60
2022-09-03T07:16:51.072Z,33.80
2022-09-03T07:19:19.592Z,33.70
2022-09-03T07:21:50.466Z,33.80
2022-09-03T07:24:22.232Z,33.80
2022-09-03T07:26:50.883Z,33.80
2022-09-03T07:29:21.581Z,33.80
2022-09-03T07:31:52.528Z,33.80
2022-09-03T07:34:25.353Z,33.90
2022-09-03T07:36:55.029Z,33.90
2022-09-03T07:39:24.808Z,33.80
2022-09-03T07:41:53.813Z,33.90
2022-09-03T07:44:24.747Z,33.90
2022-09-03T07:46:53.193Z,33.80
2022-09-03T07:49:26.034Z,33.10
2022-09-03T07:51:54.783Z,33.20
2022-09-03T07:54:27.391Z,33.20
2022-09-03T07:56:56.379Z,33.40
2022-09-03T07:59:25.990Z,33.50
2022-09-03T08:01:54.676Z,33.50
2022-09-03T08:04:23.090Z,33.50
2022-09-03T08:06:55.734Z,33.50
2022-09-03T08:09:25.565Z,33.50
2022-09-03T08:11:53.939Z,33.70
2022-09-03T08:14:22.305Z,33.70
2022-09-03T08:16:51.888Z,33.80
2022-09-03T08:19:20.569Z,33.90
2022-09-03T08:21:49.124Z,34.00
2022-09-03T08:24:19.204Z,34.00
2022-09-03T08:26:52.162Z,34.00
2022-09-03T08:29:21.898Z,34.00
2022-09-03T08:31:50.348Z,34.10
2022-09-03T08:34:18.955Z,34.30
2022-09-03T08:36:48.102Z,34.50
2022-09-03T08:39:17.065Z,34.40
2022-09-03T08:42:11.928Z,34.50
2022-09-03T08:44:46.999Z,35.10
2022-09-03T08:47:19.857Z,36.60
2022-09-03T08:49:54.433Z,36.70
2022-09-03T08:52:29.109Z,36.70
2022-09-03T08:55:15.353Z,36.60
2022-09-03T08:57:48.680Z,36.60
2022-09-03T09:00:17.335Z,36.60
2022-09-03T09:03:03.338Z,36.50
2022-09-03T09:05:45.123Z,36.60
2022-09-03T09:08:24.208Z,36.60
2022-09-03T09:11:03.784Z,36.50
2022-09-03T09:13:40.856Z,36.50
2022-09-03T09:16:23.329Z,36.60
2022-09-03T09:19:02.502Z,36.50
2022-09-03T09:21:37.494Z,36.50
2022-09-03T09:24:13.496Z,36.40
2022-09-03T09:26:42.798Z,36.50
2022-09-03T09:29:14.031Z,36.50
2022-09-03T09:31:45.183Z,36.40
2022-09-03T09:34:13.784Z,36.50
2022-09-03T09:36:49.485Z,36.70
2022-09-03T09:39:18.098Z,36.50
2022-09-03T09:41:58.952Z,36.70
2022-09-03T09:44:28.849Z,36.70
2022-09-03T09:47:08.925Z,36.80
2022-09-03T09:49:39.647Z,36.80
2022-09-03T09:52:12.073Z,36.70
2022-09-03T09:54:42.225Z,36.60
2022-09-03T09:57:19.077Z,36.70
2022-09-03T09:59:49.611Z,36.70
2022-09-03T10:02:27.908Z,36.70
2022-09-03T10:05:01.807Z,36.70
2022-09-03T10:07:33.032Z,36.60
2022-09-03T10:10:07.588Z,36.70
2022-09-03T10:12:44.262Z,36.60
2022-09-03T10:15:25.210Z,36.70
2022-09-03T10:18:06.744Z,36.60
2022-09-03T10:20:44.383Z,36.70
2022-09-03T10:23:18.109Z,36.80
2022-09-03T10:26:04.554Z,36.70
2022-09-03T10:28:38.426Z,37.00
2022-09-03T10:31:23.789Z,36.90
2022-09-03T10:33:59.495Z,36.80
2022-09-03T10:36:35.696Z,36.80
2022-09-03T10:39:07.407Z,37.00
2022-09-03T10:41:47.547Z,37.10
2022-09-03T10:44:50.073Z,37.10
2022-09-03T10:47:35.299Z,37.30
2022-09-03T10:50:16.570Z,37.10
2022-09-03T10:53:07.857Z,37.20
2022-09-03T10:55:49.284Z,37.40
2022-09-03T10:58:34.972Z,37.50
2022-09-03T11:01:09.018Z,37.50
2022-09-03T11:03:46.057Z,37.60
2022-09-03T11:06:20.688Z,37.70
2022-09-03T11:09:02.082Z,37.70
2022-09-03T11:11:38.369Z,37.60
2022-09-03T11:14:10.312Z,37.60
2022-09-03T11:16:44.311Z,37.80
2022-09-03T11:19:18.132Z,37.80
2022-09-03T11:21:49.196Z,37.90
2022-09-03T11:24:22.755Z,38.10
2022-09-03T11:26:56.933Z,38.30
2022-09-03T11:29:36.856Z,38.30
2022-09-03T11:32:11.033Z,38.30
2022-09-03T11:34:48.753Z,38.30
2022-09-03T11:37:20.569Z,38.30
2022-09-03T11:39:57.348Z,38.30
2022-09-03T11:42:36.946Z,38.30
2022-09-03T11:45:22.322Z,38.20
2022-09-03T11:47:51.906Z,38.30
2022-09-03T11:50:25.383Z,38.30
2022-09-03T11:52:57.016Z,38.30
2022-09-03T11:55:37.543Z,38.20
2022-09-03T11:58:22.113Z,38.30
2022-09-03T12:00:50.653Z,38.30
2022-09-03T12:03:23.176Z,38.30
2022-09-03T12:06:11.821Z,38.30
2022-09-03T12:09:00.178Z,38.30
2022-09-03T12:11:40.886Z,38.30
2022-09-03T12:14:18.924Z,38.30
2022-09-03T12:17:01.003Z,38.30
2022-09-03T12:19:38.581Z,38.20
2022-09-03T12:22:09.348Z,38.20
2022-09-03T12:24:38.442Z,38.20
2022-09-03T12:27:08.093Z,38.20
2022-09-03T12:29:36.409Z,38.20
2022-09-03T12:32:11.168Z,38.20
2022-09-03T12:34:39.502Z,38.30
2022-09-03T12:38:04.071Z,38.40
2022-09-03T12:40:18.851Z,38.20
2022-09-03T12:42:47.232Z,38.40
2022-09-03T12:45:19.963Z,38.40
2022-09-03T12:47:48.368Z,38.40
2022-09-03T12:50:20.273Z,38.50
2022-09-03T12:52:54.369Z,38.60
2022-09-03T12:55:37.481Z,38.60
2022-09-03T12:58:13.822Z,38.60
2022-09-03T13:00:46.614Z,38.70
2022-09-03T13:03:21.119Z,38.60
2022-09-03T13:05:53.928Z,38.60
2022-09-03T13:08:26.607Z,39.40
2022-09-03T13:10:57.718Z,39.30
2022-09-03T13:13:28.256Z,39.30
2022-09-03T13:16:04.827Z,39.60
2022-09-03T13:18:44.470Z,39.50
2022-09-03T13:21:20.012Z,39.40
2022-09-03T13:24:04.767Z,39.40
2022-09-03T13:26:44.390Z,39.40
2022-09-03T13:29:49.258Z,39.30
2022-09-03T13:32:30.135Z,39.40
2022-09-03T13:35:02.969Z,39.40
2022-09-03T13:37:39.712Z,39.40
2022-09-03T13:40:17.679Z,39.50
2022-09-03T13:42:54.094Z,39.50
2022-09-03T13:45:32.823Z,39.50
2022-09-03T13:48:25.391Z,39.60
2022-09-03T13:51:00.080Z,39.60
2022-09-03T13:53:38.809Z,39.70
2022-09-03T13:56:20.094Z,39.70
2022-09-03T13:58:54.811Z,39.60
2022-09-03T14:01:27.269Z,39.70
2022-09-03T14:03:59.303Z,39.70
2022-09-03T14:06:41.888Z,39.70
2022-09-03T14:09:17.505Z,39.70
2022-09-03T14:12:06.319Z,39.80
2022-09-03T14:14:42.738Z,39.80
2022-09-03T14:17:16.189Z,39.90
2022-09-03T14:19:52.393Z,40.10
2022-09-03T14:22:24.580Z,40.10
2022-09-03T14:24:57.753Z,40.20
2022-09-03T14:27:29.539Z,40.30
2022-09-03T14:30:02.090Z,40.20
2022-09-03T14:32:44.460Z,40.20
2022-09-03T14:35:29.027Z,40.30
2022-09-03T14:38:23.856Z,40.30
2022-09-03T14:41:04.188Z,40.30
2022-09-03T14:44:07.707Z,40.50
2022-09-03T14:46:47.587Z,40.40
2022-09-03T14:49:40.506Z,40.40
2022-09-03T14:52:19.668Z,40.50
2022-09-03T14:55:07.606Z,40.50
2022-09-03T14:58:02.719Z,40.50
2022-09-03T15:00:36.337Z,40.60
2022-09-03T15:03:29.049Z,40.50
2022-09-03T15:06:11.686Z,42.10
2022-09-03T15:08:50.319Z,42.00
2022-09-03T15:11:22.813Z,41.20
2022-09-03T15:13:56.190Z,41.00
2022-09-03T15:16:42.874Z,41.10
2022-09-03T15:19:29.992Z,41.40
2022-09-03T15:22:14.777Z,42.30
2022-09-03T15:24:54.530Z,42.10
2022-09-03T15:27:41.615Z,42.00
2022-09-03T15:30:11.910Z,41.80
2022-09-03T15:32:58.104Z,41.80
2022-09-03T15:35:41.595Z,41.80
2022-09-03T15:38:14.169Z,41.80
2022-09-03T15:40:50.944Z,41.80
2022-09-03T15:43:22.425Z,41.70
2022-09-03T15:45:58.325Z,41.80
2022-09-03T15:48:44.741Z,41.80
2022-09-03T15:51:18.972Z,41.80
2022-09-03T15:53:53.459Z,41.70
2022-09-03T15:56:27.683Z,41.70
2022-09-03T15:59:03.107Z,41.70
2022-09-03T16:01:38.014Z,41.90
2022-09-03T16:04:28.998Z,41.80
2022-09-03T16:07:03.349Z,42.10
2022-09-03T16:10:20.439Z,42.20
2022-09-03T16:12:48.947Z,42.20
2022-09-03T16:15:20.949Z,42.20
2022-09-03T16:17:58.082Z,42.40
2022-09-03T16:20:36.250Z,42.10
2022-09-03T16:23:09.331Z,42.60
2022-09-03T16:25:49.311Z,43.50
2022-09-03T16:28:21.171Z,43.90
2022-09-03T16:30:59.797Z,43.70
2022-09-03T16:33:38.335Z,43.80
2022-09-03T16:36:33.621Z,44.10
2022-09-03T16:39:08.390Z,44.00
2022-09-03T16:41:44.075Z,44.20
2022-09-03T16:44:19.895Z,44.20
2022-09-03T16:46:55.218Z,44.30
2022-09-03T16:49:45.511Z,44.10
2022-09-03T16:52:37.878Z,44.50
2022-09-03T16:55:18.997Z,44.40
2022-09-03T16:58:09.739Z,44.30
2022-09-03T17:00:50.286Z,44.30
2022-09-03T17:03:48.166Z,44.30
2022-09-03T17:06:48.095Z,44.30
2022-09-03T17:09:34.597Z,43.90
2022-09-03T17:12:10.211Z,43.90
2022-09-03T17:15:06.473Z,44.20
2022-09-03T17:17:57.393Z,44.90
2022-09-03T17:20:49.224Z,45.40
2022-09-03T17:23:38.388Z,45.00
2022-09-03T17:26:13.208Z,44.80
2022-09-03T17:28:53.386Z,44.60
2022-09-03T17:31:30.266Z,44.40
2022-09-03T17:34:07.224Z,44.40
2022-09-03T17:36:38.948Z,44.30
2022-09-03T17:39:36.127Z,44.30
2022-09-03T17:42:13.237Z,44.00
2022-09-03T17:44:55.073Z,44.10
2022-09-03T17:47:43.567Z,44.00
2022-09-03T17:50:19.950Z,44.20
2022-09-03T17:52:54.125Z,44.00
2022-09-03T17:55:34.012Z,43.90
2022-09-03T17:58:12.531Z,44.00
2022-09-03T18:00:47.271Z,44.00
2022-09-03T18:03:22.386Z,43.90
2022-09-03T18:06:00.903Z,43.80
2022-09-03T18:08:37.296Z,43.70
2022-09-03T18:11:11.910Z,43.90
2022-09-03T18:13:51.555Z,44.00
2022-09-03T18:16:27.324Z,43.80
2022-09-03T18:19:18.485Z,44.00
2022-09-03T18:22:07.711Z,44.00
2022-09-03T18:25:00.560Z,44.20
2022-09-03T18:27:51.907Z,44.30
2022-09-03T18:30:38.934Z,44.20
2022-09-03T18:33:24.634Z,44.10
2022-09-03T18:36:10.205Z,44.00
2022-09-03T18:38:57.131Z,44.10
2022-09-03T18:42:03.275Z,44.00
2022-09-03T18:45:20.313Z,43.90
2022-09-03T18:48:20.720Z,44.00
2022-09-03T18:51:15.568Z,43.90
2022-09-03T18:54:08.657Z,44.10
2022-09-03T18:56:58.911Z,44.30
2022-09-03T19:00:15.253Z,44.30
2022-09-03T19:03:12.380Z,44.10
2022-09-03T19:06:14.071Z,44.30
2022-09-03T19:09:07.280Z,44.10
2022-09-03T19:11:58.738Z,44.20
2022-09-03T19:14:54.607Z,44.10
2022-09-03T19:17:51.908Z,44.10
2022-09-03T19:20:44.836Z,44.10
2022-09-03T19:23:31.821Z,44.10
2022-09-03T19:26:38.313Z,44.30
2022-09-03T19:29:35.430Z,44.10
2022-09-03T19:32:27.459Z,44.30
2022-09-03T19:35:27.378Z,44.30
2022-09-03T19:38:24.429Z,44.30
2022-09-03T19:41:20.519Z,44.20
2022-09-03T19:44:25.269Z,44.30
2022-09-03T19:47:16.228Z,45.50
2022-09-03T19:50:18.613Z,44.30
2022-09-03T19:53:11.495Z,44.40
2022-09-03T19:56:07.209Z,44.30
2022-09-03T19:58:59.055Z,44.40
2022-09-03T20:01:51.617Z,44.30
2022-09-03T20:04:39.107Z,44.30
2022-09-03T20:07:28.655Z,44.30
2022-09-03T20:10:19.560Z,44.30
2022-09-03T20:12:53.173Z,44.30
2022-09-03T20:15:27.507Z,44.20
2022-09-03T20:18:02.777Z,44.20
2022-09-03T20:20:41.894Z,44.20
2022-09-03T20:23:19.270Z,44.20
2022-09-03T20:26:10.456Z,44.20
2022-09-03T20:29:09.714Z,44.10
2022-09-03T20:31:50.824Z,44.10
2022-09-03T20:34:32.948Z,44.00
2022-09-03T20:37:12.799Z,44.20
2022-09-03T20:39:54.629Z,44.00
2022-09-03T20:42:40.252Z,44.10
2022-09-03T20:45:16.191Z,44.00
2022-09-03T20:48:14.897Z,44.00
2022-09-03T20:50:53.306Z,43.90
2022-09-03T20:53:51.052Z,43.90
2022-09-03T20:56:26.480Z,44.00
2022-09-03T20:59:04.203Z,45.10
2022-09-03T21:01:39.023Z,44.00
2022-09-03T21:04:23.592Z,44.00
2022-09-03T21:06:57.204Z,44.00
2022-09-03T21:09:34.954Z,44.00
2022-09-03T21:12:10.404Z,43.90
2022-09-03T21:14:43.147Z,44.00
2022-09-03T21:17:27.938Z,43.90
2022-09-03T21:20:09.020Z,43.90
2022-09-03T21:22:45.677Z,44.00
2022-09-03T21:25:18.915Z,44.00
2022-09-03T21:27:51.106Z,43.90
2022-09-03T21:30:21.041Z,44.00
2022-09-03T21:32:54.673Z,43.90
2022-09-03T21:35:28.749Z,43.90
2022-09-03T21:38:00.319Z,43.90
2022-09-03T21:40:31.265Z,43.80
2022-09-03T21:43:09.413Z,43.90
2022-09-03T21:45:44.336Z,43.90
2022-09-03T21:48:18.107Z,43.90
2022-09-03T21:50:54.817Z,43.80
2022-09-03T21:53:29.972Z,43.80
2022-09-03T21:56:32.886Z,43.80
2022-09-03T21:59:09.199Z,43.80
2022-09-03T22:01:56.009Z,43.80
2022-09-03T22:04:28.693Z,43.80
2022-09-03T22:07:07.608Z,45.00
2022-09-03T22:09:41.869Z,43.70
2022-09-03T22:12:17.559Z,43.70
2022-09-03T22:14:49.116Z,43.80
2022-09-03T22:17:22.953Z,43.80
2022-09-03T22:19:51.561Z,43.80
2022-09-03T22:22:26.574Z,43.80
2022-09-03T22:25:04.662Z,43.80
2022-09-03T22:27:39.731Z,43.70
2022-09-03T22:30:11.268Z,43.80
2022-09-03T22:32:51.053Z,43.80
2022-09-03T22:35:59.179Z,43.80
2022-09-03T22:38:54.837Z,43.70
2022-09-03T22:41:45.959Z,43.70
2022-09-03T22:44:25.836Z,43.80
2022-09-03T22:47:06.674Z,43.70
2022-09-03T22:49:42.722Z,43.70
2022-09-03T22:52:22.183Z,43.70
2022-09-03T22:55:10.866Z,43.70
2022-09-03T22:57:47.255Z,43.70
2022-09-03T23:00:15.970Z,43.80
2022-09-03T23:02:46.809Z,43.80
2022-09-03T23:05:28.465Z,43.80
2022-09-03T23:08:06.288Z,43.70
2022-09-03T23:10:54.975Z,43.80
2022-09-03T23:13:30.028Z,43.70
2022-09-03T23:16:05.524Z,43.80
2022-09-03T23:18:36.111Z,43.80
2022-09-03T23:21:10.602Z,43.70
2022-09-03T23:23:43.134Z,43.70
2022-09-03T23:26:23.417Z,43.70
2022-09-03T23:28:55.541Z,43.70
2022-09-03T23:31:25.258Z,43.70
2022-09-03T23:33:56.056Z,43.80
2022-09-03T23:37:01.587Z,43.70
2022-09-03T23:39:40.645Z,43.80
2022-09-03T23:42:18.048Z,43.80
2022-09-03T23:44:58.956Z,43.90
2022-09-03T23:47:40.097Z,44.00
2022-09-03T23:50:17.797Z,43.90
2022-09-03T23:53:07.182Z,44.00
2022-09-03T23:55:48.578Z,43.90
2022-09-03T23:58:30.220Z,45.10
